Silver Lake, KS (66539)

12:47 PM CDT on September 21, 2017 (GMT -0500)
sw indian hills | | Change Station

Elev 1076 ft 39.04 °N, 95.80 °W | Updated 12 seconds ago

Clear
Clear
87.8 °F
Feels Like 86 °F
N
15.2
Wind Variable Wind from SSE
Gusts 19.9 mph

Today
High -- | Low -- °F
--% Chance of Precip.
Yesterday
High -- | Low -- °F
Precip. -- in
Pressure 29.85 in
Visibility 10.0 miles
Clouds Scattered Clouds 2800 ft
Heat Index 86 °F
Dew Point 53 °F
Humidity 31%
Rainfall 0.00 in
Snow Depth Not available.
7:10 AM 7:21 PM
Waxing Crescent, 3% visible
METAR KTOP 211653Z 17012KT 10SM SCT028 30/24 A2988 RMK AO2 SLP106 T03000239
Pressure 29.85 in
Visibility 10.0 miles
Clouds Scattered Clouds 2800 ft
Heat Index 86 °F
Dew Point 53 °F
Humidity 31%
Rainfall 0.00 in
Snow Depth Not available.
7:10 AM 7:21 PM
Waxing Crescent, 3% visible
METAR KTOP 211653Z 17012KT 10SM SCT028 30/24 A2988 RMK AO2 SLP106 T03000239

Get Severe Weather Alerts

Thanks for signing up!

Be on the lookout for a verification email in your inbox.

You'll start receiving the daily forecast at 6 AM.

×

10-Day Weather Forecast

Almanac

Astronomy

Sep. 21, 2017 Rise Set
Actual Time
Civil Twilight
Nautical Twilight
Astronomical Twilight
Moon
Length of Visible Light
Length of Day
Tomorrow will be .
, % of the Moon is Illuminated

Today's Extremes

State Highs State Lows

Community

WunderPhotos

Category 6

Welcome to Category 6. This is the collective home for Weather Underground's featured writeups by Dr. Jeff Masters (right), Bob Henson (left), Chris Burt, and other regular contributors.

Nearby

Air Quality

  Air Quality AQ Index Pollutant
Not available.

Snow Depth

Station Depth Elevation

Earthquake Activity

City Distance Mag. Time & Date
Minimum magnitude displayed is 2.5.

Coastal Water Temperatures

Place Temperature

Stations

Nearby Weather Stations

Station Location Temp. Windchill Dew Point Humidity Wind Precip. Elev Updated Type
                   

Watches & Warnings

There are currently no watches in effect.